AIRPORT METAR

METAR FOR FMMI
ADDS - METARS form results

(1343 UTC 17 June 2019)
Data provider http://aviationweather.gov/metar/data/
 
METAR text: FMMI 171330Z 15010KT 9999 FEW020 SCT023 19/12 Q1025 NOSIG
Conditions at: FMMI (ANTANANARIVO/IVA, KM) observed 1330 UTC 17 June 2019
Temperature: 19.0°C (66°F)
Dewpoint: 12.0°C (54°F) [RH = 64%]
Pressure (altimeter): 30.27 inches Hg (1025.0 mb)
Winds: from the SSE (150 degrees) at 12 MPH (10 knots; 5.1 m/s)
Visibility: 6 or more miles (10+ km)
Ceiling: at least 12,000 feet AGL
Clouds: few clouds at 2000 feet AGL
scattered clouds at 2300 feet AGL
Weather: no significant weather observed at this time

METAR text: FMMI 171300Z 14009KT 110V180 9999 FEW020 SCT023 19/13 Q1025 NOSIG
Conditions at: FMMI (ANTANANARIVO/IVA, KM) observed 1300 UTC 17 June 2019
Temperature: 19.0°C (66°F)
Dewpoint: 13.0°C (55°F) [RH = 68%]
Pressure (altimeter): 30.27 inches Hg (1025.0 mb)
Winds: from the SE (140 degrees) at 10 MPH (9 knots; 4.6 m/s)
Visibility: 6 or more miles (10+ km)
Ceiling: at least 12,000 feet AGL
Clouds: few clouds at 2000 feet AGL
scattered clouds at 2300 feet AGL
Weather: no significant weather observed at this time

Forecast for: FMMI (ANTANANARIVO/IVA, KM)
Text: FMMI 171100Z 1712/1818 14012KT 9999 FEW017 BKN020
Forecast period: 1200 UTC 17 June 2019 to 1800 UTC 18 June 2019
Forecast type: FROM: standard forecast or significant change
Winds: from the SE (140 degrees) at 14 MPH (12 knots; 6.2 m/s)
Visibility: 6 or more miles 10+ km)
Ceiling: 2000 feet AGL
Clouds: few clouds at 1700 feet AGL
broken clouds at 2000 feet AGL
Weather: no significant weather forecast for this period
Text: PROB30
Forecast period: 2000 UTC 17 June 2019 to 0400 UTC 18 June 2019
Forecast type: TEMPORARY: The following changes expected for less than half the time period
Visibility: 2.80 miles (4.51 km)
Ceiling: unknown
Clouds: missing
Weather: DZ RA  (moderate drizzle, moderate rain)

AIRPORT MAP

 RUNWAY INFORMATION
Runway 11 Runway length 10171 ft Runway width 148 ft
Runway elevation 4197 ft Runway displaced threshold 0 ft Runway heading 99
Runway 29 Runway length 10171 ft Runway width 148 ft
Runway elevation 4117 ft Runway displaced threshold 0 ft Runway heading 279

 AIRPORT FREQUENCIES
Type TWR Name TWR Frequency 120.1 MHZ

 AIRPORT NEAR NAVIGATION AIDS
Type VOR-DME Name Ivato Frequency 114500 KHZ



© 2017 - Royal Sky Service, All Right Reserved. | Design & Developed by Davide Torresan